CheckWX is a tool to help pilots better visualize weather data.  It is not intended as a substitute for an official pre-flight weather briefing.

17:43:03 UTC

KPIA TAF
General Downing - Peoria International Airport
Peoria, Illinois, USA
KPIA 111717Z 1117/1212 32007KT P6SM SCT040 TEMPO 1117/1119 BKN025 FM112000 VRB03KT P6SM FEW250 FM120700 14009KT P6SM BKN250

Dec-11@
17:00 UTC

Dec-11 @ 17:00 UTC

Dec-11@
20:00 UTC

Dec-11 @ 20:00 UTC

KPIA 111717Z 1117/1212 32007KT P6SM SCT040
Wind
  • 320° at 7 KTS
Cloud Levels
  • Scattered at 4,000' AGL

Dec-11@
17:00 UTC

Dec-11 @ 17:00 UTC

Dec-11@
19:00 UTC

Dec-11 @ 19:00 UTC

TEMPO 1117/1119 BKN025

Temporary

Temporary Changes expected for less than half the time period

Cloud Levels
  • Broken at 2,500' AGL

Dec-11@
20:00 UTC

Dec-11 @ 20:00 UTC

Dec-12@
07:00 UTC

Dec-12 @ 07:00 UTC

FM112000 VRB03KT P6SM FEW250

From

From Standard forecast or significant change

Wind
  • Variable at 3 KTS
Cloud Levels
  • Few at 25,000' AGL

Dec-12@
07:00 UTC

Dec-12 @ 07:00 UTC

Dec-12@
12:00 UTC

Dec-12 @ 12:00 UTC

FM120700 14009KT P6SM BKN250

From

From Standard forecast or significant change

Wind
  • 140° at 9 KTS
Cloud Levels
  • Broken at 25,000' AGL